Time;durP1;ratioP1;P1;durP2;ratioP2;P2;SDS_P1;SDS_P2;PMS_P1;PMS_P2;Temp;Humidity;BMP_temperature;BMP_pressure;BME280_temperature;BME280_humidity;BME280_pressure;Samples;Min_cycle;Max_cycle;Signal;HPM_P1;HPM_P2
2024/01/20 00:00:15;;;;;;;6.57;4.32;;;;;;;17.36;28.90;102482.59;4232306;28;20047;-52
2024/01/20 00:02:16;;;;;;;7.50;4.55;;;;;;;17.38;28.99;102475.44;4232243;28;20055;-50
2024/01/20 00:04:18;;;;;;;6.78;4.78;;;;;;;17.38;28.67;102467.47;4231854;28;20043;-50
2024/01/20 00:06:21;;;;;;;6.50;4.45;;;;;;;17.38;28.87;102470.13;4231903;28;20073;-50
2024/01/20 00:08:23;;;;;;;;;;;;;;;17.36;28.71;102472.84;4232619;28;20447;-49
2024/01/20 00:10:24;;;;;;;6.15;4.55;;;;;;;17.34;29.07;102479.13;4232244;28;20397;-49
2024/01/20 00:12:26;;;;;;;7.15;4.70;;;;;;;17.31;28.85;102469.47;4232152;28;20047;-50
2024/01/20 00:14:28;;;;;;;6.35;4.20;;;;;;;17.32;28.83;102479.19;4230808;28;20104;-49
2024/01/20 00:16:30;;;;;;;6.90;4.68;;;;;;;17.31;29.08;102482.75;4231896;28;20503;-50
2024/01/20 00:18:32;;;;;;;7.18;4.47;;;;;;;17.28;28.98;102480.22;4231539;28;20048;-51
2024/01/20 00:20:34;;;;;;;6.50;4.55;;;;;;;17.29;28.91;102487.28;4231966;27;20063;-51
2024/01/20 00:22:36;;;;;;;6.50;4.60;;;;;;;17.32;28.90;102495.16;4231973;28;20047;-51
2024/01/20 00:24:37;;;;;;;7.35;4.70;;;;;;;17.34;28.75;102493.31;4230622;28;20124;-53
2024/01/20 00:26:39;;;;;;;6.88;4.75;;;;;;;17.35;28.77;102489.72;4231738;28;20130;-50
2024/01/20 00:28:41;;;;;;;6.45;4.38;;;;;;;17.34;28.88;102482.66;4231598;28;20043;-49
2024/01/20 00:30:45;;;;;;;6.95;4.90;;;;;;;17.35;28.77;102481.75;4231680;28;20039;-50
2024/01/20 00:32:47;;;;;;;6.25;4.57;;;;;;;17.33;28.94;102480.94;4231267;28;20047;-51
2024/01/20 00:34:49;;;;;;;7.30;4.65;;;;;;;17.33;29.00;102482.72;4231672;28;20051;-49
2024/01/20 00:37:07;;;;;;;7.13;4.45;;;;;;;17.32;28.94;102486.31;4231374;28;20040;-53
2024/01/20 00:39:08;;;;;;;6.88;4.65;;;;;;;17.29;28.73;102486.41;4231633;28;20040;-51
2024/01/20 00:41:11;;;;;;;6.30;4.28;;;;;;;17.28;28.93;102476.69;4231535;28;20039;-52
2024/01/20 00:43:13;;;;;;;6.35;4.45;;;;;;;17.29;28.71;102489.94;4231512;28;20043;-53
2024/01/20 00:45:15;;;;;;;6.05;4.20;;;;;;;17.30;28.89;102494.31;4231378;28;20043;-51
2024/01/20 00:47:17;;;;;;;6.15;4.40;;;;;;;17.32;28.94;102491.63;4231054;28;20046;-53
2024/01/20 00:49:18;;;;;;;5.63;4.00;;;;;;;17.34;28.97;102495.09;4231411;28;20456;-52
2024/01/20 00:51:20;;;;;;;6.20;4.40;;;;;;;17.33;28.84;102493.38;4231455;28;20504;-52
2024/01/20 00:53:22;;;;;;;8.18;4.63;;;;;;;17.33;28.91;102499.53;4231356;28;20036;-50
2024/01/20 00:55:23;;;;;;;7.30;5.07;;;;;;;17.33;28.88;102501.34;4231237;28;20044;-51
2024/01/20 00:57:25;;;;;;;6.75;4.32;;;;;;;17.13;28.90;102475.44;4231238;28;20073;-51
2024/01/20 00:59:27;;;;;;;6.85;4.80;;;;;;;17.28;28.98;102504.16;4231049;28;20145;-53
2024/01/20 01:01:28;;;;;;;6.22;4.30;;;;;;;17.26;29.01;102511.31;4231119;28;20044;-52
2024/01/20 01:03:30;;;;;;;6.28;4.63;;;;;;;17.24;29.00;102508.72;4231293;28;20056;-53
2024/01/20 01:05:32;;;;;;;6.05;4.55;;;;;;;17.24;28.67;102499.84;4230425;28;20052;-50
2024/01/20 01:07:34;;;;;;;6.50;4.53;;;;;;;17.25;28.79;102504.25;4230935;28;20139;-54
2024/01/20 01:09:36;;;;;;;6.05;4.50;;;;;;;17.28;28.94;102511.25;4230988;28;20051;-51
2024/01/20 01:11:37;;;;;;;6.53;4.60;;;;;;;17.29;28.71;102505.03;4230962;28;20089;-51
2024/01/20 01:13:40;;;;;;;5.68;4.05;;;;;;;17.31;28.58;102508.50;4231093;28;20122;-53
2024/01/20 01:15:41;;;;;;;6.30;4.30;;;;;;;17.30;28.57;102494.31;4230802;28;20487;-54
2024/01/20 01:17:43;;;;;;;6.30;4.40;;;;;;;17.31;28.82;102496.06;4230819;28;20051;-51
2024/01/20 01:19:45;;;;;;;6.35;4.07;;;;;;;17.28;28.78;102496.19;4230830;28;20048;-52
2024/01/20 01:21:47;;;;;;;6.50;4.45;;;;;;;17.28;28.85;102503.28;4230781;28;20056;-52
2024/01/20 01:23:48;;;;;;;5.85;4.40;;;;;;;17.22;28.80;102499.06;4230799;28;20050;-53
2024/01/20 01:25:50;;;;;;;6.35;4.43;;;;;;;17.24;28.91;102499.84;4230947;28;20039;-53
2024/01/20 01:27:51;;;;;;;6.43;4.50;;;;;;;17.24;28.58;102507.84;4230921;28;20054;-52
2024/01/20 01:29:53;;;;;;;6.22;4.25;;;;;;;17.26;28.90;102503.34;4230345;28;20100;-53
2024/01/20 01:31:55;;;;;;;6.15;4.22;;;;;;;17.27;28.77;102498.88;4230853;28;20127;-53
2024/01/20 01:33:56;;;;;;;6.15;4.50;;;;;;;17.29;28.59;102495.28;4230715;28;20497;-53
2024/01/20 01:35:58;;;;;;;6.80;4.50;;;;;;;17.31;28.59;102495.22;4230637;28;20047;-54
2024/01/20 01:38:00;;;;;;;7.13;4.65;;;;;;;17.32;28.60;102502.25;4230766;28;20189;-51
2024/01/20 01:40:01;;;;;;;5.93;4.20;;;;;;;17.32;28.63;102511.09;4230827;28;20464;-54
2024/01/20 01:42:03;;;;;;;7.07;4.40;;;;;;;17.30;28.67;102510.28;4230736;28;20048;-54
2024/01/20 01:44:05;;;;;;;5.88;4.03;;;;;;;17.27;28.64;102510.41;4230868;28;20043;-52
2024/01/20 01:46:07;;;;;;;7.07;4.75;;;;;;;17.23;28.60;102514.06;4229440;28;20046;-53
2024/01/20 01:48:09;;;;;;;6.18;4.10;;;;;;;17.24;28.68;102514.03;4230816;28;20052;-53
2024/01/20 01:50:11;;;;;;;;;;;;;;;17.23;28.60;102519.38;4230982;28;20071;-52
2024/01/20 01:52:14;;;;;;;6.20;4.15;;;;;;;17.23;28.60;102530.03;4230878;28;19963;-52
2024/01/20 01:54:17;;;;;;;6.15;4.57;;;;;;;17.24;28.55;102527.34;4230724;28;20130;-53
2024/01/20 01:56:19;;;;;;;5.65;3.90;;;;;;;17.25;28.81;102530.84;4230332;28;20047;-52
2024/01/20 01:58:21;;;;;;;6.93;4.38;;;;;;;17.30;28.80;102528.88;4229147;28;20078;-53
2024/01/20 02:00:23;;;;;;;6.53;4.07;;;;;;;17.30;28.52;102518.25;4230208;28;20040;-51
2024/01/20 02:02:25;;;;;;;6.35;4.50;;;;;;;17.29;28.45;102527.19;4230576;28;20396;-51
2024/01/20 02:04:26;;;;;;;5.40;4.07;;;;;;;17.26;28.54;102532.59;4230420;28;20097;-52
2024/01/20 02:06:28;;;;;;;6.15;3.88;;;;;;;17.25;28.72;102536.16;4230294;28;20039;-53
2024/01/20 02:08:30;;;;;;;7.45;4.30;;;;;;;17.21;28.54;102532.75;4229201;28;20499;-52
2024/01/20 02:10:32;;;;;;;6.50;4.20;;;;;;;17.21;28.78;102537.22;4229132;28;20105;-51
2024/01/20 02:12:34;;;;;;;6.63;4.45;;;;;;;17.21;28.65;102539.88;4230343;28;20050;-52
2024/01/20 02:14:36;;;;;;;5.72;4.15;;;;;;;17.24;28.68;102534.44;4230236;28;20067;-53
2024/01/20 02:16:37;;;;;;;6.65;4.57;;;;;;;17.23;28.71;102532.69;4231162;28;20052;-53
2024/01/20 02:18:39;;;;;;;6.90;3.95;;;;;;;17.26;28.74;102532.59;4233945;28;20486;-52
2024/01/20 02:20:41;;;;;;;5.50;3.90;;;;;;;17.28;28.48;102536.06;4233925;28;20039;-54
2024/01/20 02:22:43;;;;;;;6.05;4.45;;;;;;;17.28;28.71;102535.19;4233883;28;20043;-52
2024/01/20 02:24:49;;;;;;;5.72;4.03;;;;;;;17.28;28.67;102535.19;4233604;28;20043;-53
2024/01/20 02:26:50;;;;;;;6.68;4.40;;;;;;;17.23;28.76;102536.22;4232475;28;20491;-52
2024/01/20 02:28:52;;;;;;;6.35;4.13;;;;;;;17.21;28.43;102534.56;4233365;28;20058;-53
2024/01/20 02:30:53;;;;;;;5.60;3.90;;;;;;;17.12;28.70;102524.22;4233638;28;20051;-52
2024/01/20 02:32:55;;;;;;;5.70;3.97;;;;;;;17.21;28.60;102545.19;4233733;28;20112;-50
2024/01/20 02:34:57;;;;;;;6.20;4.20;;;;;;;17.20;28.55;102532.81;4233496;28;20090;-52
2024/01/20 02:36:59;;;;;;;6.93;4.30;;;;;;;17.22;28.55;102545.13;4233704;28;20055;-53
2024/01/20 02:39:00;;;;;;;6.90;4.32;;;;;;;17.24;28.59;102539.75;4233485;28;20044;-50
2024/01/20 02:41:02;;;;;;;6.43;4.22;;;;;;;17.24;28.69;102530.00;4233615;28;20055;-53
2024/01/20 02:43:04;;;;;;;5.65;3.90;;;;;;;17.27;28.66;102537.00;4232082;28;20067;-52
2024/01/20 02:45:06;;;;;;;6.35;3.92;;;;;;;17.27;28.61;102539.66;4233536;28;20067;-53
2024/01/20 02:47:08;;;;;;;5.93;4.35;;;;;;;17.27;28.60;102542.31;4233211;28;20474;-53
2024/01/20 02:49:09;;;;;;;5.93;4.10;;;;;;;17.23;28.42;102540.66;4233509;28;20067;-53
2024/01/20 02:51:11;;;;;;;5.82;3.90;;;;;;;17.21;28.53;102547.84;4233576;28;20047;-53
2024/01/20 02:53:13;;;;;;;5.90;3.92;;;;;;;17.16;28.48;102531.19;4233403;28;20096;-53
2024/01/20 02:55:15;;;;;;;5.85;4.22;;;;;;;17.18;28.68;102537.31;4233091;28;20040;-53
2024/01/20 02:57:16;;;;;;;5.68;3.70;;;;;;;17.20;28.66;102538.13;4232985;28;20135;-50
2024/01/20 02:59:18;;;;;;;6.50;4.15;;;;;;;17.19;28.64;102539.94;4233002;28;20052;-53
2024/01/20 03:01:20;;;;;;;6.38;4.30;;;;;;;17.24;28.53;102540.63;4233116;28;20040;-51
2024/01/20 03:03:21;;;;;;;7.40;4.20;;;;;;;17.27;28.44;102549.41;4233062;28;20696;-53
2024/01/20 03:05:23;;;;;;;5.70;3.75;;;;;;;17.26;28.41;102542.38;4233253;28;20054;-53
2024/01/20 03:07:25;;;;;;;6.03;4.00;;;;;;;17.26;28.58;102545.03;4231739;28;20134;-52
2024/01/20 03:09:26;;;;;;;5.60;3.95;;;;;;;17.23;28.28;102541.56;4233253;28;20054;-50
2024/01/20 03:11:28;;;;;;;7.22;3.85;;;;;;;17.21;28.48;102547.84;4232889;28;20064;-51
2024/01/20 03:13:29;;;;;;;6.35;4.00;;;;;;;17.19;28.38;102547.03;4233088;28;20047;-54
2024/01/20 03:15:31;;;;;;;5.40;3.50;;;;;;;17.18;28.93;102542.63;4232883;28;20043;-52
2024/01/20 03:17:33;;;;;;;5.63;3.83;;;;;;;17.15;28.72;102546.25;4233153;27;20051;-50
2024/01/20 03:19:35;;;;;;;5.20;3.28;;;;;;;17.16;28.52;102541.81;4232947;27;20050;-50
2024/01/20 03:21:36;;;;;;;5.97;3.72;;;;;;;17.18;28.68;102543.50;4233088;28;20120;-52
2024/01/20 03:23:41;;;;;;;5.28;3.83;;;;;;;17.21;28.37;102538.06;4232810;28;20067;-51
2024/01/20 03:25:43;;;;;;;6.18;3.75;;;;;;;17.23;28.33;102543.31;4232361;28;20039;-49
2024/01/20 03:27:45;;;;;;;5.72;3.63;;;;;;;17.24;28.27;102545.06;4231567;28;20047;-47
2024/01/20 03:29:46;;;;;;;5.47;3.63;;;;;;;17.24;28.25;102545.06;4232164;28;20051;-49
2024/01/20 03:31:48;;;;;;;5.47;3.65;;;;;;;17.21;28.36;102548.69;4232725;28;20245;-50
2024/01/20 03:33:49;;;;;;;5.82;3.97;;;;;;;17.20;28.35;102548.75;4232516;28;20040;-48
2024/01/20 03:35:51;;;;;;;6.65;3.70;;;;;;;17.16;28.44;102537.34;4232611;27;20122;-48
2024/01/20 03:37:53;;;;;;;6.35;3.92;;;;;;;17.16;28.64;102550.66;4232749;28;20050;-50
2024/01/20 03:39:54;;;;;;;5.47;3.72;;;;;;;17.15;28.59;102551.56;4232795;28;20039;-49
2024/01/20 03:41:56;;;;;;;5.38;3.45;;;;;;;17.17;28.46;102549.75;4232137;27;20047;-50
2024/01/20 03:43:58;;;;;;;6.28;3.60;;;;;;;17.17;28.44;102543.53;4232487;28;20040;-51
2024/01/20 03:45:59;;;;;;;6.20;3.55;;;;;;;17.17;28.49;102546.19;4232495;28;20043;-50
2024/01/20 03:48:01;;;;;;;6.03;3.95;;;;;;;17.19;28.64;102547.91;4232361;28;20067;-50
2024/01/20 03:50:06;;;;;;;5.75;3.80;;;;;;;17.22;28.42;102545.13;4232487;27;20426;-53
2024/01/20 03:52:08;;;;;;;5.82;3.70;;;;;;;17.22;28.56;102545.13;4232449;28;20048;-52
2024/01/20 03:54:10;;;;;;;5.97;3.92;;;;;;;17.21;28.47;102545.19;4232440;28;20108;-49
2024/01/20 03:56:11;;;;;;;5.43;3.67;;;;;;;17.19;28.23;102547.03;4231656;28;20460;-50
2024/01/20 03:58:13;;;;;;;5.85;3.90;;;;;;;17.17;28.36;102549.75;4232250;28;20058;-53
2024/01/20 04:00:14;;;;;;;6.18;3.97;;;;;;;17.13;28.43;102544.56;4232139;28;20039;-54
2024/01/20 04:02:16;;;;;;;5.32;3.55;;;;;;;17.12;28.60;102543.72;4232232;28;20484;-52
2024/01/20 04:04:18;;;;;;;5.35;3.47;;;;;;;17.13;28.38;102540.09;4231124;28;20141;-49
2024/01/20 04:06:20;;;;;;;5.85;3.90;;;;;;;17.16;28.59;102539.16;4230934;28;20043;-49
2024/01/20 04:08:21;;;;;;;5.88;3.85;;;;;;;17.18;28.21;102539.97;4232107;28;20040;-49
2024/01/20 04:10:23;;;;;;;6.38;3.67;;;;;;;17.15;28.25;102540.94;4231694;28;20044;-50
2024/01/20 04:12:25;;;;;;;5.43;3.72;;;;;;;17.20;28.25;102543.44;4232259;28;20044;-49
2024/01/20 04:14:26;;;;;;;5.47;4.13;;;;;;;17.19;28.48;102549.69;4231939;28;20051;-49
2024/01/20 04:16:29;;;;;;;5.15;3.65;;;;;;;17.17;28.38;102541.75;4231012;28;20044;-49
2024/01/20 04:18:31;;;;;;;5.88;3.70;;;;;;;17.18;28.38;102547.94;4232051;28;20040;-51
2024/01/20 04:20:33;;;;;;;5.93;3.70;;;;;;;17.15;28.23;102556.88;4232187;28;20043;-48
2024/01/20 04:22:34;;;;;;;5.05;3.67;;;;;;;17.11;28.30;102552.63;4232079;28;20082;-50
2024/01/20 04:24:36;;;;;;;6.25;4.10;;;;;;;17.12;28.51;102558.78;4231675;28;20093;-50
2024/01/20 04:26:38;;;;;;;6.40;4.03;;;;;;;17.11;28.39;102555.28;4231884;28;20044;-50
2024/01/20 04:28:39;;;;;;;5.45;3.63;;;;;;;17.14;28.03;102563.13;4230761;28;20040;-51
2024/01/20 04:30:41;;;;;;;6.10;4.05;;;;;;;17.17;28.28;102560.38;4231913;28;20067;-50
2024/01/20 04:32:42;;;;;;;5.57;3.85;;;;;;;17.17;28.29;102556.81;4232019;28;20046;-49
2024/01/20 04:34:44;;;;;;;6.15;4.07;;;;;;;17.19;28.28;102552.34;4231854;28;20048;-51
2024/01/20 04:36:46;;;;;;;5.45;3.95;;;;;;;17.20;28.43;102556.75;4231778;28;20043;-49
2024/01/20 04:38:47;;;;;;;6.80;3.90;;;;;;;17.18;28.09;102561.22;4231319;28;20043;-49
2024/01/20 04:40:49;;;;;;;7.35;4.60;;;;;;;17.15;28.11;102556.88;4230703;28;20053;-51
2024/01/20 04:42:51;;;;;;;5.95;4.05;;;;;;;17.12;28.25;102561.44;4231503;28;20122;-50
2024/01/20 04:44:52;;;;;;;;;;;;;;;17.09;28.38;102565.06;4232170;28;20043;-50
2024/01/20 04:46:54;;;;;;;6.15;4.28;;;;;;;17.06;28.36;102560.72;4231468;28;19920;-48
2024/01/20 04:48:56;;;;;;;6.07;4.45;;;;;;;17.07;28.40;102559.81;4231428;28;20131;-48
2024/01/20 04:50:57;;;;;;;7.18;4.43;;;;;;;17.09;28.48;102552.63;4231420;28;20047;-50
2024/01/20 04:52:59;;;;;;;6.50;4.28;;;;;;;17.12;27.98;102551.69;4230981;27;20040;-52
2024/01/20 04:55:01;;;;;;;6.13;4.07;;;;;;;17.13;28.12;102557.88;4231325;28;20093;-52
2024/01/20 04:57:02;;;;;;;5.65;3.92;;;;;;;17.11;28.33;102563.25;4231297;28;20051;-50
2024/01/20 04:59:04;;;;;;;6.68;4.10;;;;;;;17.08;28.15;102566.88;4231048;28;20134;-49
2024/01/20 05:01:06;;;;;;;6.07;4.13;;;;;;;17.07;28.25;102572.22;4231368;28;20100;-49
2024/01/20 05:03:07;;;;;;;5.80;3.95;;;;;;;17.01;28.23;102573.31;4231348;28;20043;-49
2024/01/20 05:05:09;;;;;;;5.72;3.70;;;;;;;17.00;28.31;102571.56;4231333;28;20409;-52
2024/01/20 05:07:11;;;;;;;5.72;3.72;;;;;;;16.98;28.24;102576.06;4230817;28;20047;-51
2024/01/20 05:09:13;;;;;;;6.70;3.92;;;;;;;17.00;28.34;102589.28;4229939;28;20100;-51
2024/01/20 05:11:15;;;;;;;5.70;3.80;;;;;;;17.00;28.12;102576.00;4231157;28;20051;-50
2024/01/20 05:13:16;;;;;;;5.50;3.72;;;;;;;17.03;28.30;102583.88;4231149;28;20134;-52
2024/01/20 05:15:18;;;;;;;6.13;3.92;;;;;;;17.03;28.11;102575.91;4230848;28;20044;-49
2024/01/20 05:17:20;;;;;;;5.97;3.83;;;;;;;17.04;27.87;102567.03;4230903;28;20505;-51
2024/01/20 05:19:21;;;;;;;5.40;3.72;;;;;;;17.04;28.22;102565.22;4231409;28;20044;-50
2024/01/20 05:21:23;;;;;;;;;;;;;;;16.99;28.04;102566.31;4231517;28;20044;-52
2024/01/20 05:23:25;;;;;;;7.47;4.15;;;;;;;16.98;28.10;102573.41;4230661;28;19921;-52
2024/01/20 05:25:27;;;;;;;6.20;4.05;;;;;;;16.99;28.15;102569.84;4230689;28;20476;-53
2024/01/20 05:27:28;;;;;;;5.80;3.75;;;;;;;16.97;28.33;102566.34;4231049;28;20422;-52
2024/01/20 05:29:30;;;;;;;5.55;4.00;;;;;;;16.95;28.10;102570.88;4230934;28;20051;-52
2024/01/20 05:31:31;;;;;;;5.72;3.63;;;;;;;16.95;28.31;102568.22;4231035;28;20067;-52
2024/01/20 05:33:33;;;;;;;5.22;3.50;;;;;;;16.97;28.05;102566.34;4229764;28;20122;-51
2024/01/20 05:35:37;;;;;;;6.15;3.63;;;;;;;16.99;28.06;102566.31;4230928;28;20487;-51
2024/01/20 05:37:39;;;;;;;5.30;3.60;;;;;;;17.01;28.24;102570.66;4230449;28;20043;-53
2024/01/20 05:39:40;;;;;;;6.43;4.15;;;;;;;17.01;28.21;102573.31;4230610;28;20411;-52
2024/01/20 05:41:42;;;;;;;;;;;;;;;17.01;27.92;102570.66;4231217;28;20044;-51
2024/01/20 05:43:44;;;;;;;7.05;4.03;;;;;;;16.99;28.10;102567.16;4230907;28;20305;-49
2024/01/20 05:45:46;;;;;;;5.28;3.78;;;;;;;16.98;28.17;102565.44;4230667;28;20048;-53
2024/01/20 05:47:47;;;;;;;5.95;3.72;;;;;;;16.98;28.17;102565.44;4229426;28;20541;-52
2024/01/20 05:49:49;;;;;;;5.43;3.63;;;;;;;16.92;28.08;102563.84;4230661;28;20102;-52
2024/01/20 05:51:51;;;;;;;4.93;3.33;;;;;;;16.96;28.23;102579.69;4230093;28;20044;-50
2024/01/20 05:53:52;;;;;;;6.40;3.78;;;;;;;16.92;28.13;102576.25;4230683;28;20044;-50
2024/01/20 05:55:54;;;;;;;6.20;3.75;;;;;;;16.96;28.36;102583.22;4230545;28;20418;-48
2024/01/20 05:57:56;;;;;;;6.70;3.72;;;;;;;16.97;28.28;102587.59;4230499;28;20130;-51
2024/01/20 05:59:57;;;;;;;6.28;3.97;;;;;;;16.98;28.23;102583.19;4230654;28;20066;-50
2024/01/20 06:01:59;;;;;;;5.70;3.83;;;;;;;17.03;28.05;102586.56;4230555;28;20097;-51
2024/01/20 06:04:03;;;;;;;6.22;3.95;;;;;;;17.04;28.04;102596.28;4230494;28;20430;-49
2024/01/20 06:06:05;;;;;;;6.00;4.07;;;;;;;17.02;27.96;102588.34;4230292;28;20067;-50
2024/01/20 06:08:09;;;;;;;5.32;3.95;;;;;;;16.99;27.93;102577.81;4230384;28;20491;-50
2024/01/20 06:10:11;;;;;;;6.05;3.75;;;;;;;16.98;27.97;102580.53;4230593;28;20475;-50
2024/01/20 06:12:13;;;;;;;6.22;4.00;;;;;;;16.94;28.25;102577.09;4230280;28;20044;-51
2024/01/20 06:14:15;;;;;;;;;;;;;;;16.92;27.98;102577.13;4230922;28;20074;-53
2024/01/20 06:16:17;;;;;;;5.13;3.78;;;;;;;16.87;28.27;102581.69;4230291;28;20018;-47
2024/01/20 06:18:18;;;;;;;6.22;3.78;;;;;;;16.92;28.31;102574.47;4230401;28;20040;-49
2024/01/20 06:20:20;;;;;;;6.35;3.88;;;;;;;16.94;28.16;102582.41;4228977;28;20625;-49
2024/01/20 06:22:22;;;;;;;5.60;3.97;;;;;;;16.98;28.10;102580.53;4230285;28;20047;-50
2024/01/20 06:24:24;;;;;;;6.25;3.92;;;;;;;16.91;28.11;102570.06;4230388;28;20464;-51
2024/01/20 06:26:25;;;;;;;5.68;4.05;;;;;;;17.00;28.04;102586.63;4230397;28;20046;-52
2024/01/20 06:28:27;;;;;;;6.20;4.00;;;;;;;17.01;27.92;102588.38;4228900;28;20043;-51
2024/01/20 06:30:29;;;;;;;;;;;;;;;16.96;27.78;102587.66;4230863;28;20517;-52
2024/01/20 06:32:31;;;;;;;6.10;3.85;;;;;;;16.92;28.17;102592.22;4230022;28;19920;-51
2024/01/20 06:34:32;;;;;;;6.05;3.90;;;;;;;16.92;28.15;102584.25;4229859;28;20050;-51
2024/01/20 06:36:34;;;;;;;6.63;4.00;;;;;;;16.93;27.92;102591.28;4230309;28;20050;-52
2024/01/20 06:38:36;;;;;;;5.60;3.65;;;;;;;16.92;28.15;102594.88;4230354;28;20051;-50
2024/01/20 06:40:38;;;;;;;5.82;4.18;;;;;;;16.93;27.91;102593.97;4230345;28;20047;-51
2024/01/20 06:42:39;;;;;;;6.07;4.45;;;;;;;16.95;27.99;102596.56;4230375;28;20073;-50
2024/01/20 06:44:41;;;;;;;6.20;4.15;;;;;;;16.97;27.91;102590.25;4230341;28;20043;-51
2024/01/20 06:46:43;;;;;;;5.85;4.00;;;;;;;16.98;27.95;102585.84;4230202;28;20054;-52
2024/01/20 06:48:44;;;;;;;6.88;3.80;;;;;;;16.98;27.95;102593.81;4228540;28;20040;-52
2024/01/20 06:50:46;;;;;;;5.88;4.10;;;;;;;16.97;28.02;102592.94;4230015;28;20047;-53
2024/01/20 06:52:48;;;;;;;6.07;4.10;;;;;;;16.96;27.74;102607.13;4230019;28;20043;-51
2024/01/20 06:54:50;;;;;;;;;;;;;;;16.91;27.82;102611.69;4230193;28;20048;-51
2024/01/20 06:56:51;;;;;;;6.40;4.18;;;;;;;16.90;27.93;102615.28;4229959;28;19930;-53
2024/01/20 06:58:56;;;;;;;5.97;4.20;;;;;;;16.87;27.95;102610.06;4229994;28;20051;-52
2024/01/20 07:00:58;;;;;;;5.93;4.20;;;;;;;16.90;27.95;102626.78;4228981;28;20512;-52
2024/01/20 07:03:00;;;;;;;6.70;4.53;;;;;;;16.88;27.97;102619.78;4230179;28;20047;-51
2024/01/20 07:05:02;;;;;;;5.85;4.15;;;;;;;16.93;27.92;102626.72;4232288;28;20517;-52
2024/01/20 07:07:06;;;;;;;6.15;3.95;;;;;;;16.94;27.98;102627.59;4231931;28;20537;-49
2024/01/20 07:09:08;;;;;;;5.72;4.22;;;;;;;16.97;28.06;102631.94;4232809;28;20426;-51
2024/01/20 07:11:10;;;;;;;6.18;4.05;;;;;;;16.97;28.02;102627.47;4233118;28;20097;-51
2024/01/20 07:13:12;;;;;;;5.95;4.00;;;;;;;16.97;28.03;102626.63;4233176;28;20043;-49
2024/01/20 07:15:14;;;;;;;6.18;4.07;;;;;;;16.95;27.88;102625.78;4232993;28;20123;-51
2024/01/20 07:17:15;;;;;;;6.82;4.03;;;;;;;16.92;27.81;102632.94;4232734;28;20457;-49
2024/01/20 07:19:17;;;;;;;6.47;3.83;;;;;;;16.89;27.86;102627.69;4232576;27;20415;-51
2024/01/20 07:21:20;;;;;;;5.78;3.88;;;;;;;16.91;27.98;102635.63;4232974;28;20127;-46
2024/01/20 07:23:21;;;;;;;6.00;4.22;;;;;;;16.89;27.81;102632.13;4232778;28;20071;-51
2024/01/20 07:25:23;;;;;;;6.10;3.90;;;;;;;16.92;27.94;102634.75;4231709;28;20047;-52
2024/01/20 07:27:24;;;;;;;6.78;4.13;;;;;;;16.94;28.06;102638.22;4232881;28;20518;-51
2024/01/20 07:29:26;;;;;;;5.97;4.05;;;;;;;16.93;27.99;102629.38;4232562;28;20044;-48
2024/01/20 07:31:28;;;;;;;5.82;3.90;;;;;;;16.97;27.77;102635.44;4232851;28;20047;-52
2024/01/20 07:33:29;;;;;;;6.07;4.35;;;;;;;16.97;28.03;102626.63;4232433;28;20066;-50
2024/01/20 07:35:32;;;;;;;6.82;4.43;;;;;;;16.95;27.83;102626.69;4231487;28;20433;-51
2024/01/20 07:37:36;;;;;;;6.53;4.28;;;;;;;16.89;27.67;102625.03;4231383;28;20047;-50
2024/01/20 07:39:38;;;;;;;5.40;3.88;;;;;;;16.91;28.04;102624.97;4232819;28;20494;-49
2024/01/20 07:41:39;;;;;;;6.85;4.47;;;;;;;16.88;27.99;102625.09;4232505;28;20051;-50
2024/01/20 07:43:41;;;;;;;5.72;3.70;;;;;;;16.87;27.83;102626.00;4232511;28;20355;-50
2024/01/20 07:45:42;;;;;;;6.45;4.43;;;;;;;16.88;28.02;102633.06;4232542;28;20089;-50
2024/01/20 07:47:46;;;;;;;6.03;4.40;;;;;;;16.91;27.96;102627.66;4232066;28;20044;-51
2024/01/20 07:49:48;;;;;;;6.53;4.18;;;;;;;16.93;28.05;102625.84;4231240;28;20130;-51
2024/01/20 07:51:49;;;;;;;6.30;3.78;;;;;;;16.93;27.86;102628.50;4232485;28;20414;-52
2024/01/20 07:53:51;;;;;;;5.70;3.90;;;;;;;16.95;27.85;102637.31;4232335;28;20126;-52
2024/01/20 07:55:53;;;;;;;6.85;4.22;;;;;;;16.96;27.96;102630.19;4232267;28;20053;-52
2024/01/20 07:57:55;;;;;;;5.70;4.10;;;;;;;16.96;27.54;102640.81;4232264;28;20036;-54
2024/01/20 07:59:56;;;;;;;6.05;4.18;;;;;;;16.92;27.66;102640.91;4232370;28;20049;-52
2024/01/20 08:01:58;;;;;;;6.00;4.18;;;;;;;16.89;27.86;102645.41;4231855;28;20051;-52
2024/01/20 08:03:59;;;;;;;6.88;4.03;;;;;;;16.87;27.76;102637.50;4232080;28;20429;-52
2024/01/20 08:06:02;;;;;;;6.10;4.13;;;;;;;16.87;27.89;102642.81;4232027;28;20051;-52
2024/01/20 08:08:04;;;;;;;5.95;4.15;;;;;;;16.88;27.98;102655.19;4232013;28;20047;-51
2024/01/20 08:10:06;;;;;;;6.00;4.05;;;;;;;16.91;28.08;102656.88;4232000;28;20448;-53
2024/01/20 08:12:07;;;;;;;6.10;4.25;;;;;;;16.94;27.88;102654.16;4232125;28;20063;-52
2024/01/20 08:14:09;;;;;;;5.93;4.22;;;;;;;16.98;27.80;102652.28;4231860;28;20455;-52
2024/01/20 08:16:11;;;;;;;6.60;4.30;;;;;;;16.96;27.68;102651.47;4231247;28;20047;-51
2024/01/20 08:18:13;;;;;;;6.35;4.18;;;;;;;16.95;27.77;102647.94;4231918;28;20131;-53
2024/01/20 08:20:14;;;;;;;;;;;;;;;16.95;27.85;102652.38;4232216;28;20476;-48
2024/01/20 08:22:17;;;;;;;5.88;4.10;;;;;;;16.88;28.00;102649.03;4232039;28;19926;-52
2024/01/20 08:24:19;;;;;;;5.75;4.40;;;;;;;16.86;27.94;102649.03;4231669;28;20544;-53
2024/01/20 08:26:20;;;;;;;6.53;4.65;;;;;;;16.92;27.56;102653.34;4231911;28;20100;-52
2024/01/20 08:28:22;;;;;;;6.75;4.63;;;;;;;16.92;27.92;102654.19;4231836;28;20067;-51
2024/01/20 08:30:23;;;;;;;6.55;4.20;;;;;;;16.92;27.80;102659.50;4231363;28;20430;-54
2024/01/20 08:32:25;;;;;;;7.80;4.60;;;;;;;16.93;27.77;102657.75;4231754;28;20123;-54
2024/01/20 08:34:27;;;;;;;7.60;5.07;;;;;;;16.93;27.86;102655.94;4231792;28;20127;-53
2024/01/20 08:36:29;;;;;;;6.93;4.53;;;;;;;16.97;27.62;102664.69;4231761;28;20055;-52
2024/01/20 08:38:30;;;;;;;6.90;4.70;;;;;;;17.00;27.66;102661.94;4231625;28;20051;-53
2024/01/20 08:40:32;;;;;;;6.60;4.55;;;;;;;16.96;27.84;102652.31;4231665;28;20461;-54
2024/01/20 08:42:34;;;;;;;6.72;4.93;;;;;;;16.95;27.94;102655.91;4231557;28;20077;-52
2024/01/20 08:44:36;;;;;;;5.93;4.68;;;;;;;16.91;27.81;102652.44;4231241;28;20079;-52
2024/01/20 08:46:37;;;;;;;6.38;4.20;;;;;;;16.87;27.99;102655.25;4231625;28;20047;-52
2024/01/20 08:48:39;;;;;;;7.32;4.80;;;;;;;16.84;28.00;102658.88;4231416;28;20043;-52
2024/01/20 08:50:41;;;;;;;7.22;4.88;;;;;;;16.86;27.84;102658.81;4231231;28;20058;-53
2024/01/20 08:52:43;;;;;;;7.18;4.65;;;;;;;16.88;28.00;102651.69;4231384;28;20050;-52
2024/01/20 08:54:45;;;;;;;6.38;4.90;;;;;;;16.93;27.81;102663.06;4231295;28;20044;-49
2024/01/20 08:56:48;;;;;;;7.22;5.20;;;;;;;16.95;27.84;102661.22;4231475;28;20051;-51
2024/01/20 08:58:50;;;;;;;6.95;4.65;;;;;;;16.96;27.74;102662.09;4231145;28;20130;-51
2024/01/20 09:00:51;;;;;;;6.55;4.82;;;;;;;16.96;27.85;102659.44;4231057;28;20043;-48
2024/01/20 09:02:53;;;;;;;7.40;4.80;;;;;;;16.94;27.74;102656.84;4231318;28;20055;-53
2024/01/20 09:04:55;;;;;;;6.65;4.78;;;;;;;16.93;27.99;102674.53;4230967;28;20494;-52
2024/01/20 09:06:56;;;;;;;6.55;4.82;;;;;;;16.88;27.77;102670.28;4230136;28;20122;-53
2024/01/20 09:08:58;;;;;;;6.88;4.65;;;;;;;16.90;27.74;102669.31;4231128;28;20093;-51
2024/01/20 09:10:59;;;;;;;7.10;5.22;;;;;;;16.91;27.94;102668.41;4231299;28;20154;-53
2024/01/20 09:13:02;;;;;;;7.18;4.60;;;;;;;16.92;27.84;102667.50;4231141;28;20051;-52
2024/01/20 09:15:03;;;;;;;;;;;;;;;16.93;27.65;102660.41;4230981;28;20044;-52
2024/01/20 09:17:05;;;;;;;6.68;4.82;;;;;;;16.95;27.80;102657.69;4231259;28;19923;-52
2024/01/20 09:19:07;;;;;;;8.40;5.30;;;;;;;16.96;27.96;102657.63;4231196;28;20086;-52
2024/01/20 09:21:10;;;;;;;;;;;;;;;16.96;27.66;102654.97;4231221;28;20126;-53
2024/01/20 09:23:11;;;;;;;;;;;;;;;16.95;27.91;102650.59;4231501;28;19939;-52
2024/01/20 09:25:13;;;;;;;7.28;5.15;;;;;;;16.92;27.72;102643.56;4231058;28;19919;-51
2024/01/20 09:27:16;;;;;;;7.38;5.05;;;;;;;16.96;27.85;102652.31;4224237;28;20123;-51
2024/01/20 09:29:18;;;;;;;7.82;5.50;;;;;;;16.96;27.74;102635.50;4227862;28;20048;-50